Morgantown, West Virginia
Current Conditions -  °F | °C
As of 5:29 AM on Wednesday 22 Oct 2014 (Local Time) from KMGW Reporting Station
Light Rain Light Rain  
Wind Chill: 47°   Ceiling: 400
Heat Index: 49°   Visibility: 3mi
Dew Point: 45°   Wind: 5mph
Humidity: 86%   Direction: NA
Pressure: 30.05"   Gusts: NA
Location:  39.63°N, 79.96°W
Report Text: KMGW 220929Z AUTO VRB04KT 3SM -RA BR OVC004 09/07 A3005 RMK AO2 P0004 T00940072 TSNO
Loading
Personal Weather Stations






























Interactive Weather Map
Tropical Storm Tracking
New forecast layout! Learn more

10-Day Weather Forecast

Advertisements
Track Severe Weather on mobile